createdAt,value
2022-11-06T00:00:56.011Z,6.77
2022-11-06T00:03:23.818Z,7.80
2022-11-06T00:06:09.791Z,7.27
2022-11-06T00:08:39.228Z,7.70
2022-11-06T00:11:10.658Z,7.13
2022-11-06T00:13:37.792Z,7.53
2022-11-06T00:16:06.925Z,7.30
2022-11-06T00:18:35.030Z,7.90
2022-11-06T00:21:33.958Z,7.47
2022-11-06T00:24:02.176Z,6.23
2022-11-06T00:26:31.038Z,7.30
2022-11-06T00:28:58.101Z,7.50
2022-11-06T00:31:27.627Z,7.60
2022-11-06T00:33:55.737Z,6.97
2022-11-06T00:36:23.950Z,8.13
2022-11-06T00:38:55.506Z,7.90
2022-11-06T00:41:23.164Z,6.93
2022-11-06T00:44:10.244Z,6.80
2022-11-06T00:46:37.287Z,7.50
2022-11-06T00:49:04.538Z,8.13
2022-11-06T00:51:36.894Z,7.50
2022-11-06T00:54:05.532Z,7.53
2022-11-06T00:56:33.002Z,7.00
2022-11-06T00:59:01.286Z,7.27
2022-11-06T01:01:30.893Z,6.93
2022-11-06T01:04:12.134Z,7.43
2022-11-06T01:06:41.360Z,7.30
2022-11-06T01:09:09.569Z,6.60
2022-11-06T01:12:11.213Z,7.27
2022-11-06T01:14:28.455Z,7.57
2022-11-06T01:16:55.664Z,6.60
2022-11-06T01:19:23.270Z,7.77
2022-11-06T01:21:52.922Z,7.83
2022-11-06T01:24:26.761Z,7.50
2022-11-06T01:27:24.294Z,7.67
2022-11-06T01:29:40.661Z,7.90
2022-11-06T01:32:07.501Z,6.87
2022-11-06T01:34:34.238Z,8.30
2022-11-06T01:37:00.949Z,7.53
2022-11-06T01:39:27.750Z,7.10
2022-11-06T01:41:55.183Z,6.90
2022-11-06T01:44:42.913Z,7.50
2022-11-06T01:47:25.193Z,7.20
2022-11-06T01:49:55.120Z,7.40
2022-11-06T01:52:23.592Z,7.57
2022-11-06T01:54:53.472Z,5.13
2022-11-06T01:57:20.744Z,7.53
2022-11-06T01:59:47.889Z,6.93
2022-11-06T02:02:17.266Z,7.57
2022-11-06T02:04:46.247Z,7.90
2022-11-06T02:07:13.282Z,7.13
2022-11-06T02:09:41.565Z,7.63
2022-11-06T02:12:38.916Z,7.93
2022-11-06T02:15:14.470Z,7.33
2022-11-06T02:18:00.045Z,6.27
2022-11-06T02:20:31.484Z,7.70
2022-11-06T02:23:35.829Z,7.70
2022-11-06T02:26:44.251Z,6.73
2022-11-06T02:29:21.268Z,7.50
2022-11-06T02:31:52.405Z,7.30
2022-11-06T02:34:20.350Z,7.20
2022-11-06T02:36:55.103Z,5.70
2022-11-06T02:39:24.380Z,5.43
2022-11-06T02:41:53.446Z,7.00
2022-11-06T02:44:23.778Z,6.57
2022-11-06T02:47:02.801Z,7.37
2022-11-06T02:49:34.520Z,6.27
2022-11-06T02:52:06.667Z,6.40
2022-11-06T02:54:37.847Z,6.50
2022-11-06T02:57:14.419Z,6.00
2022-11-06T03:00:04.298Z,5.70
2022-11-06T03:02:40.820Z,6.80
2022-11-06T03:05:58.615Z,7.07
2022-11-06T03:08:37.169Z,6.30
2022-11-06T03:11:29.568Z,6.53
2022-11-06T03:14:11.452Z,6.10
2022-11-06T03:16:58.376Z,5.63
2022-11-06T03:19:30.583Z,5.70
2022-11-06T03:22:28.872Z,6.40
2022-11-06T03:25:04.559Z,5.73
2022-11-06T03:28:00.767Z,5.70
2022-11-06T03:30:27.859Z,6.43
2022-11-06T03:33:01.132Z,5.93
2022-11-06T03:35:51.514Z,5.47
2022-11-06T03:38:32.831Z,5.50
2022-11-06T03:41:09.110Z,4.20
2022-11-06T03:43:37.991Z,5.13
2022-11-06T03:46:10.839Z,5.53
2022-11-06T03:48:48.083Z,4.57
2022-11-06T03:51:28.929Z,4.80
2022-11-06T03:54:11.643Z,4.50
2022-11-06T03:56:46.057Z,5.67
2022-11-06T03:59:15.380Z,5.60
2022-11-06T04:01:45.549Z,5.00
2022-11-06T04:04:21.663Z,5.10
2022-11-06T04:06:55.418Z,4.90
2022-11-06T04:09:46.163Z,4.80
2022-11-06T04:12:35.199Z,4.90
2022-11-06T04:15:03.074Z,5.27
2022-11-06T04:17:30.256Z,4.50
2022-11-06T04:20:03.121Z,5.30
2022-11-06T04:22:58.077Z,5.00
2022-11-06T04:25:46.304Z,5.27
2022-11-06T04:28:57.304Z,3.97
2022-11-06T04:31:38.942Z,5.10
2022-11-06T04:34:31.794Z,4.13
2022-11-06T04:37:07.072Z,4.90
2022-11-06T04:39:40.594Z,4.80
2022-11-06T04:42:24.471Z,4.63
2022-11-06T04:44:57.106Z,4.43
2022-11-06T04:47:24.844Z,4.70
2022-11-06T04:49:53.710Z,3.97
2022-11-06T04:52:24.690Z,4.43
2022-11-06T04:54:53.267Z,4.30
2022-11-06T04:57:20.391Z,4.37
2022-11-06T04:59:47.138Z,4.30
2022-11-06T05:02:14.420Z,3.90
2022-11-06T05:04:41.364Z,3.97
2022-11-06T05:07:08.862Z,3.63
2022-11-06T05:09:35.964Z,4.30
2022-11-06T05:12:03.378Z,4.43
2022-11-06T05:14:32.565Z,4.83
2022-11-06T05:16:59.791Z,4.63
2022-11-06T05:19:26.505Z,4.20
2022-11-06T05:22:11.727Z,4.33
2022-11-06T05:24:38.446Z,4.37
2022-11-06T05:27:05.216Z,4.33
2022-11-06T05:29:32.369Z,3.73
2022-11-06T05:31:59.103Z,4.17
2022-11-06T05:34:26.200Z,3.60
2022-11-06T05:36:53.338Z,4.20
2022-11-06T05:39:20.421Z,3.70
2022-11-06T05:41:47.100Z,3.80
2022-11-06T05:44:14.284Z,4.40
2022-11-06T05:46:49.897Z,3.27
2022-11-06T05:49:18.402Z,3.87
2022-11-06T05:51:45.569Z,4.37
2022-11-06T05:54:12.701Z,3.93
2022-11-06T05:56:39.854Z,3.97
2022-11-06T05:59:06.590Z,4.37
2022-11-06T06:01:33.590Z,3.80
2022-11-06T06:04:00.794Z,3.90
2022-11-06T06:06:28.014Z,4.00
2022-11-06T06:08:54.698Z,3.90
2022-11-06T06:11:21.805Z,4.03
2022-11-06T06:13:48.898Z,3.60
2022-11-06T06:16:16.338Z,4.03
2022-11-06T06:18:43.459Z,4.03
2022-11-06T06:21:10.285Z,3.47
2022-11-06T06:23:37.404Z,4.30
2022-11-06T06:26:05.635Z,3.50
2022-11-06T06:28:32.877Z,3.67
2022-11-06T06:31:01.817Z,4.30
2022-11-06T06:33:29.231Z,3.93
2022-11-06T06:35:56.469Z,4.33
2022-11-06T06:38:23.199Z,4.40
2022-11-06T06:40:49.932Z,2.87
2022-11-06T06:43:16.701Z,4.17
2022-11-06T06:45:43.694Z,3.90
2022-11-06T06:48:10.794Z,3.33
2022-11-06T06:50:38.283Z,3.80
2022-11-06T06:53:05.447Z,3.33
2022-11-06T06:55:32.584Z,4.03
2022-11-06T06:58:00.161Z,4.00
2022-11-06T07:00:28.200Z,3.50
2022-11-06T07:02:55.362Z,3.37
2022-11-06T07:05:22.387Z,3.60
2022-11-06T07:07:49.481Z,3.20
2022-11-06T07:10:16.498Z,4.37
2022-11-06T07:12:43.676Z,3.00
2022-11-06T07:15:10.717Z,4.27
2022-11-06T07:17:37.857Z,3.80
2022-11-06T07:20:05.401Z,4.13
2022-11-06T07:22:37.079Z,2.80
2022-11-06T07:25:05.863Z,3.13
2022-11-06T07:27:33.594Z,3.20
2022-11-06T07:30:00.569Z,3.10
2022-11-06T07:32:27.899Z,3.20
2022-11-06T07:34:54.680Z,2.70
2022-11-06T07:37:21.822Z,3.70
2022-11-06T07:39:48.544Z,3.60
2022-11-06T07:42:15.245Z,3.07
2022-11-06T07:44:42.338Z,3.37
2022-11-06T07:47:09.443Z,3.10
2022-11-06T07:49:36.171Z,2.90
2022-11-06T07:52:04.468Z,3.30
2022-11-06T07:54:31.610Z,3.03
2022-11-06T07:56:58.285Z,2.80
2022-11-06T07:59:25.017Z,3.13
2022-11-06T08:01:52.930Z,3.57
2022-11-06T08:04:20.191Z,3.20
2022-11-06T08:06:47.355Z,3.00
2022-11-06T08:09:14.106Z,3.10
2022-11-06T08:11:40.816Z,2.93
2022-11-06T08:14:07.630Z,3.00
2022-11-06T08:16:34.782Z,2.90
2022-11-06T08:19:01.986Z,3.90
2022-11-06T08:21:28.790Z,3.37
2022-11-06T08:23:55.533Z,3.00
2022-11-06T08:26:22.678Z,3.10
2022-11-06T08:28:49.427Z,3.57
2022-11-06T08:31:16.253Z,2.60
2022-11-06T08:33:43.052Z,2.90
2022-11-06T08:36:10.372Z,3.10
2022-11-06T08:38:37.091Z,2.40
2022-11-06T08:41:08.818Z,2.60
2022-11-06T08:43:35.707Z,3.20
2022-11-06T08:46:03.787Z,2.90
2022-11-06T08:48:31.573Z,2.83
2022-11-06T08:50:58.440Z,3.07
2022-11-06T08:53:25.646Z,2.80
2022-11-06T08:55:52.710Z,3.30
2022-11-06T08:58:19.906Z,2.70
2022-11-06T09:00:47.071Z,2.73
2022-11-06T09:03:16.594Z,3.00
2022-11-06T09:05:44.307Z,2.70
2022-11-06T09:08:11.779Z,2.87
2022-11-06T09:10:40.026Z,3.00
2022-11-06T09:13:07.217Z,2.97
2022-11-06T09:15:34.187Z,2.40
2022-11-06T09:18:01.288Z,2.97
2022-11-06T09:20:28.128Z,3.00
2022-11-06T09:22:59.666Z,2.93
2022-11-06T09:25:26.479Z,3.27
2022-11-06T09:27:58.815Z,3.00
2022-11-06T09:30:28.660Z,2.87
2022-11-06T09:33:00.725Z,3.40
2022-11-06T09:35:29.929Z,3.43
2022-11-06T09:38:04.802Z,3.20
2022-11-06T09:40:42.380Z,3.30
2022-11-06T09:43:43.167Z,2.93
2022-11-06T09:46:25.950Z,3.47
2022-11-06T09:49:11.578Z,3.37
2022-11-06T09:52:13.563Z,3.30
2022-11-06T09:54:45.705Z,3.03
2022-11-06T09:57:37.269Z,2.53
2022-11-06T10:00:05.910Z,3.47
2022-11-06T10:02:52.594Z,3.50
2022-11-06T10:05:25.662Z,2.83
2022-11-06T10:08:04.157Z,3.00
2022-11-06T10:10:40.395Z,3.40
2022-11-06T10:13:44.450Z,2.90
2022-11-06T10:16:30.722Z,2.93
2022-11-06T10:19:20.035Z,2.80
2022-11-06T10:22:07.832Z,2.90
2022-11-06T10:25:22.889Z,2.83
2022-11-06T10:28:03.631Z,2.67
2022-11-06T10:30:51.706Z,3.00
2022-11-06T10:33:51.162Z,3.27
2022-11-06T10:36:28.155Z,2.53
2022-11-06T10:38:56.317Z,3.00
2022-11-06T10:41:28.768Z,2.97
2022-11-06T10:43:57.921Z,3.20
2022-11-06T10:46:49.706Z,3.03
2022-11-06T10:49:23.721Z,2.87
2022-11-06T10:52:05.479Z,2.40
2022-11-06T10:54:50.674Z,2.63
2022-11-06T10:57:42.118Z,2.93
2022-11-06T11:00:13.924Z,2.87
2022-11-06T11:02:55.676Z,3.00
2022-11-06T11:05:25.531Z,2.60
2022-11-06T11:07:52.734Z,2.60
2022-11-06T11:10:25.656Z,3.63
2022-11-06T11:12:55.160Z,2.80
2022-11-06T11:15:23.633Z,2.70
2022-11-06T11:18:08.705Z,2.40
2022-11-06T11:20:37.298Z,2.73
2022-11-06T11:23:22.014Z,2.90
2022-11-06T11:25:54.593Z,3.20
2022-11-06T11:28:31.945Z,2.87
2022-11-06T11:31:11.844Z,3.37
2022-11-06T11:33:40.619Z,3.03
2022-11-06T11:36:10.099Z,2.70
2022-11-06T11:38:39.916Z,3.00
2022-11-06T11:41:21.778Z,3.03
2022-11-06T11:44:06.440Z,3.03
2022-11-06T11:46:34.133Z,2.70
2022-11-06T11:49:03.237Z,2.77
2022-11-06T11:51:39.542Z,2.43
2022-11-06T11:54:20.372Z,2.90
2022-11-06T11:57:05.868Z,3.10
2022-11-06T11:59:46.962Z,2.60
2022-11-06T12:02:16.231Z,3.10
2022-11-06T12:04:46.562Z,3.40
2022-11-06T12:07:35.907Z,3.93
2022-11-06T12:10:19.414Z,3.40
2022-11-06T12:12:51.337Z,3.10
2022-11-06T12:15:39.946Z,3.73
2022-11-06T12:18:12.769Z,3.30
2022-11-06T12:20:54.332Z,3.13
2022-11-06T12:23:58.821Z,3.60
2022-11-06T12:26:37.247Z,3.90
2022-11-06T12:29:39.470Z,3.30
2022-11-06T12:32:15.200Z,4.17
2022-11-06T12:35:09.735Z,3.80
2022-11-06T12:38:22.671Z,3.43
2022-11-06T12:41:02.807Z,3.70
2022-11-06T12:43:29.955Z,3.00
2022-11-06T12:46:15.297Z,3.30
2022-11-06T12:48:42.396Z,3.27
2022-11-06T12:51:33.810Z,3.47
2022-11-06T12:54:33.290Z,3.33
2022-11-06T12:57:23.839Z,4.00
2022-11-06T13:00:09.604Z,3.93
2022-11-06T13:02:58.328Z,3.83
2022-11-06T13:06:00.145Z,3.90
2022-11-06T13:08:32.983Z,4.30
2022-11-06T13:11:13.714Z,3.40
2022-11-06T13:14:07.343Z,3.00
2022-11-06T13:16:53.028Z,3.50
2022-11-06T13:20:00.324Z,3.50
2022-11-06T13:22:44.498Z,4.10
2022-11-06T13:25:24.578Z,4.00
2022-11-06T13:28:01.938Z,4.43
2022-11-06T13:30:30.382Z,3.50
2022-11-06T13:33:00.526Z,3.97
2022-11-06T13:35:28.209Z,4.17
2022-11-06T13:37:57.069Z,4.17
2022-11-06T13:40:32.544Z,3.30
2022-11-06T13:43:12.533Z,3.87
2022-11-06T13:46:07.538Z,3.90
2022-11-06T13:48:56.209Z,4.40
2022-11-06T13:51:51.960Z,4.33
2022-11-06T13:54:39.873Z,3.80
2022-11-06T13:57:06.558Z,4.07
2022-11-06T13:59:36.396Z,4.13
2022-11-06T14:02:25.103Z,3.30
2022-11-06T14:05:13.623Z,3.70
2022-11-06T14:07:41.679Z,3.93
2022-11-06T14:10:20.262Z,3.93
2022-11-06T14:12:49.121Z,4.40
2022-11-06T14:15:21.966Z,4.93
2022-11-06T14:17:57.873Z,4.13
2022-11-06T14:20:33.029Z,3.97
2022-11-06T14:23:29.203Z,4.13
2022-11-06T14:26:11.839Z,3.80
2022-11-06T14:28:47.666Z,4.10
2022-11-06T14:32:03.505Z,4.00
2022-11-06T14:34:35.376Z,4.10
2022-11-06T14:37:30.747Z,3.67
2022-11-06T14:39:57.920Z,3.50
2022-11-06T14:42:27.179Z,3.87
2022-11-06T14:44:57.315Z,4.40
2022-11-06T14:47:30.072Z,4.00
2022-11-06T14:50:00.879Z,3.13
2022-11-06T14:52:28.866Z,3.83
2022-11-06T14:55:04.659Z,3.27
2022-11-06T14:57:41.498Z,3.30
2022-11-06T15:00:12.938Z,3.60
2022-11-06T15:02:41.162Z,3.30
2022-11-06T15:05:17.883Z,2.90
2022-11-06T15:08:04.537Z,3.60
2022-11-06T15:10:58.233Z,2.97
2022-11-06T15:13:26.356Z,3.37
2022-11-06T15:15:57.790Z,3.10
2022-11-06T15:18:25.908Z,3.53
2022-11-06T15:20:58.588Z,3.00
2022-11-06T15:23:28.424Z,3.17
2022-11-06T15:26:18.315Z,3.07
2022-11-06T15:28:51.624Z,3.53
2022-11-06T15:31:20.580Z,3.80
2022-11-06T15:34:04.632Z,3.83
2022-11-06T15:36:41.430Z,3.57
2022-11-06T15:39:38.263Z,4.80
2022-11-06T15:42:08.940Z,4.30
2022-11-06T15:44:40.912Z,4.33
2022-11-06T15:47:23.969Z,3.77
2022-11-06T15:50:12.561Z,4.10
2022-11-06T15:52:40.036Z,3.40
2022-11-06T15:55:12.161Z,3.80
2022-11-06T15:57:38.953Z,4.57
2022-11-06T16:00:23.810Z,3.70
2022-11-06T16:02:59.557Z,3.43
2022-11-06T16:05:29.517Z,3.40
2022-11-06T16:07:57.741Z,3.60
2022-11-06T16:10:24.925Z,3.47
2022-11-06T16:12:53.941Z,2.83
2022-11-06T16:15:45.571Z,3.10
2022-11-06T16:18:22.427Z,2.97
2022-11-06T16:20:51.391Z,3.60
2022-11-06T16:23:46.615Z,3.23
2022-11-06T16:26:18.271Z,3.13
2022-11-06T16:28:48.268Z,3.00
2022-11-06T16:31:22.490Z,3.30
2022-11-06T16:33:59.398Z,3.10
2022-11-06T16:36:28.432Z,2.80
2022-11-06T16:39:18.183Z,2.90
2022-11-06T16:42:06.650Z,3.30
2022-11-06T16:44:36.466Z,3.30
2022-11-06T16:47:19.717Z,3.27
2022-11-06T16:49:53.935Z,3.30
2022-11-06T16:52:40.597Z,3.60
2022-11-06T16:55:10.294Z,3.57
2022-11-06T16:57:46.447Z,3.40
2022-11-06T17:00:22.198Z,3.67
2022-11-06T17:02:55.687Z,3.87
2022-11-06T17:05:32.230Z,3.33
2022-11-06T17:08:17.524Z,4.07
2022-11-06T17:10:51.863Z,2.60
2022-11-06T17:13:28.597Z,3.20
2022-11-06T17:16:03.722Z,3.13
2022-11-06T17:18:33.025Z,3.67
2022-11-06T17:21:01.918Z,3.53
2022-11-06T17:23:30.373Z,3.20
2022-11-06T17:26:03.505Z,3.40
2022-11-06T17:28:30.675Z,3.87
2022-11-06T17:30:57.843Z,3.70
2022-11-06T17:33:24.871Z,3.80
2022-11-06T17:35:52.054Z,3.03
2022-11-06T17:38:19.278Z,3.40
2022-11-06T17:40:47.296Z,3.57
2022-11-06T17:43:14.571Z,3.20
2022-11-06T17:45:44.344Z,3.90
2022-11-06T17:48:11.116Z,3.50
2022-11-06T17:50:57.142Z,3.87
2022-11-06T17:53:23.881Z,3.00
2022-11-06T17:55:51.054Z,3.10
2022-11-06T17:58:18.216Z,3.33
2022-11-06T18:00:45.415Z,3.53
2022-11-06T18:03:20.517Z,3.40
2022-11-06T18:05:47.887Z,4.73
2022-11-06T18:08:15.537Z,3.77
2022-11-06T18:10:43.049Z,3.53
2022-11-06T18:13:10.261Z,3.17
2022-11-06T18:15:37.574Z,3.57
2022-11-06T18:18:04.561Z,3.53
2022-11-06T18:20:31.785Z,4.03
2022-11-06T18:22:59.031Z,3.90
2022-11-06T18:25:25.986Z,4.33
2022-11-06T18:27:53.161Z,3.40
2022-11-06T18:30:20.312Z,4.30
2022-11-06T18:32:47.586Z,4.73
2022-11-06T18:35:14.357Z,3.70
2022-11-06T18:37:41.155Z,3.93
2022-11-06T18:40:08.432Z,3.60
2022-11-06T18:42:35.591Z,3.93
2022-11-06T18:45:02.488Z,5.17
2022-11-06T18:47:29.230Z,6.93
2022-11-06T18:49:56.379Z,5.70
2022-11-06T18:52:44.514Z,4.93
2022-11-06T18:55:10.854Z,4.10
2022-11-06T18:57:37.769Z,3.70
2022-11-06T19:00:05.315Z,4.30
2022-11-06T19:02:32.470Z,4.00
2022-11-06T19:04:59.859Z,4.57
2022-11-06T19:07:27.288Z,5.17
2022-11-06T19:09:54.517Z,4.70
2022-11-06T19:12:21.834Z,5.37
2022-11-06T19:14:48.962Z,4.70
2022-11-06T19:17:16.157Z,3.70
2022-11-06T19:19:43.005Z,4.10
2022-11-06T19:22:10.978Z,3.10
2022-11-06T19:24:38.173Z,3.37
2022-11-06T19:27:05.666Z,3.50
2022-11-06T19:29:32.823Z,3.90
2022-11-06T19:32:02.298Z,4.90
2022-11-06T19:34:30.756Z,3.80
2022-11-06T19:36:59.319Z,3.37
2022-11-06T19:39:26.568Z,3.63
2022-11-06T19:41:53.804Z,4.10
2022-11-06T19:44:20.772Z,4.60
2022-11-06T19:46:47.912Z,3.80
2022-11-06T19:49:16.484Z,4.60
2022-11-06T19:51:43.651Z,4.80
2022-11-06T19:54:11.245Z,5.30
2022-11-06T19:57:28.421Z,5.40
2022-11-06T19:59:25.660Z,5.30
2022-11-06T20:01:53.045Z,5.10
2022-11-06T20:04:19.992Z,4.43
2022-11-06T20:06:47.139Z,5.20
2022-11-06T20:09:14.342Z,5.20
2022-11-06T20:11:41.519Z,4.40
2022-11-06T20:14:08.700Z,4.57
2022-11-06T20:16:35.907Z,4.93
2022-11-06T20:19:03.109Z,4.60
2022-11-06T20:21:30.336Z,4.90
2022-11-06T20:23:57.522Z,5.40
2022-11-06T20:26:24.553Z,4.47
2022-11-06T20:28:51.889Z,4.30
2022-11-06T20:31:23.164Z,4.87
2022-11-06T20:33:50.665Z,5.27
2022-11-06T20:36:29.453Z,5.10
2022-11-06T20:38:59.162Z,4.60
2022-11-06T20:41:27.086Z,4.73
2022-11-06T20:43:54.305Z,5.00
2022-11-06T20:46:22.214Z,4.53
2022-11-06T20:48:49.858Z,4.90
2022-11-06T20:51:19.870Z,4.50
2022-11-06T20:53:47.075Z,4.70
2022-11-06T20:56:16.553Z,4.00
2022-11-06T20:58:44.085Z,4.60
2022-11-06T21:01:18.191Z,4.10
2022-11-06T21:03:46.133Z,4.57
2022-11-06T21:06:13.629Z,3.83
2022-11-06T21:08:41.605Z,4.20
2022-11-06T21:11:18.109Z,3.90
2022-11-06T21:13:49.169Z,4.07
2022-11-06T21:16:24.855Z,3.50
2022-11-06T21:18:52.562Z,4.00
2022-11-06T21:21:23.209Z,3.50
2022-11-06T21:23:51.115Z,3.83
2022-11-06T21:26:21.188Z,3.77
2022-11-06T21:28:48.580Z,3.87
2022-11-06T21:31:17.888Z,3.83
2022-11-06T21:33:46.658Z,3.40
2022-11-06T21:36:17.609Z,3.43
2022-11-06T21:38:44.785Z,3.70
2022-11-06T21:41:14.820Z,3.20
2022-11-06T21:43:42.169Z,2.90
2022-11-06T21:46:11.405Z,3.00
2022-11-06T21:48:47.299Z,3.50
2022-11-06T21:51:26.876Z,3.10
2022-11-06T21:54:13.390Z,2.90
2022-11-06T21:56:41.015Z,2.87
2022-11-06T21:59:10.648Z,2.87
2022-11-06T22:01:38.347Z,2.70
2022-11-06T22:04:05.772Z,2.93
2022-11-06T22:06:32.997Z,2.90
2022-11-06T22:09:02.173Z,3.20
2022-11-06T22:11:38.140Z,3.20
2022-11-06T22:14:08.447Z,2.80
2022-11-06T22:16:38.687Z,2.80
2022-11-06T22:19:07.286Z,2.80
2022-11-06T22:21:35.811Z,2.60
2022-11-06T22:24:03.209Z,2.87
2022-11-06T22:26:32.232Z,2.43
2022-11-06T22:29:01.165Z,2.90
2022-11-06T22:31:28.910Z,2.70
2022-11-06T22:33:56.135Z,3.23
2022-11-06T22:36:23.581Z,2.50
2022-11-06T22:38:52.024Z,3.43
2022-11-06T22:41:21.700Z,2.87
2022-11-06T22:43:48.915Z,3.13
2022-11-06T22:46:19.078Z,2.90
2022-11-06T22:48:46.462Z,3.03
2022-11-06T22:51:19.434Z,3.13
2022-11-06T22:53:46.207Z,2.63
2022-11-06T22:56:13.894Z,3.10
2022-11-06T22:58:41.670Z,2.90
2022-11-06T23:01:10.043Z,3.40
2022-11-06T23:03:37.091Z,3.10
2022-11-06T23:06:09.476Z,3.00
2022-11-06T23:08:44.139Z,3.07
2022-11-06T23:11:14.547Z,2.80
2022-11-06T23:13:41.446Z,3.00
2022-11-06T23:16:14.697Z,2.60
2022-11-06T23:18:42.062Z,3.10
2022-11-06T23:21:17.097Z,2.80
2022-11-06T23:23:45.158Z,3.30
2022-11-06T23:26:13.611Z,2.90
2022-11-06T23:28:40.838Z,3.20
2022-11-06T23:31:09.077Z,3.83
2022-11-06T23:33:36.234Z,3.13
2022-11-06T23:36:10.427Z,3.20
2022-11-06T23:38:37.314Z,3.30
2022-11-06T23:41:35.147Z,2.70
2022-11-06T23:44:03.598Z,3.30
2022-11-06T23:46:32.816Z,3.70
2022-11-06T23:49:00.174Z,3.23
2022-11-06T23:51:27.705Z,3.03
2022-11-06T23:53:54.886Z,2.97
2022-11-06T23:56:21.817Z,3.40
2022-11-06T23:58:49.016Z,3.47
